createdAt,value
2023-03-30T00:03:55.734Z,8.91
2023-03-30T00:08:59.900Z,8.89
2023-03-30T00:14:02.024Z,8.85
2023-03-30T00:19:04.365Z,8.84
2023-03-30T00:24:08.072Z,8.79
2023-03-30T00:29:10.466Z,8.73
2023-03-30T00:34:12.183Z,8.74
2023-03-30T00:39:16.103Z,8.79
2023-03-30T00:44:55.585Z,8.75
2023-03-30T00:49:59.036Z,8.79
2023-03-30T00:55:02.595Z,8.78
2023-03-30T01:00:07.445Z,8.62
2023-03-30T01:05:10.327Z,8.56
2023-03-30T01:10:13.943Z,8.56
2023-03-30T01:15:17.104Z,8.55
2023-03-30T01:20:54.325Z,8.55
2023-03-30T01:26:27.476Z,8.59
2023-03-30T01:31:54.108Z,8.52
2023-03-30T01:37:23.085Z,8.51
2023-03-30T01:42:36.340Z,8.47
2023-03-30T01:47:41.671Z,8.46
2023-03-30T01:52:51.870Z,8.37
2023-03-30T01:58:01.600Z,8.32
2023-03-30T02:03:07.641Z,8.34
2023-03-30T02:08:13.562Z,8.38
2023-03-30T02:13:19.083Z,8.40
2023-03-30T02:18:21.229Z,8.39
2023-03-30T02:23:25.599Z,8.42
2023-03-30T02:28:29.238Z,8.42
2023-03-30T02:33:41.683Z,8.43
2023-03-30T02:39:17.382Z,8.45
2023-03-30T02:44:31.761Z,8.47
2023-03-30T02:49:49.885Z,8.48
2023-03-30T02:54:57.501Z,8.49
2023-03-30T03:00:05.152Z,8.56
2023-03-30T03:05:11.882Z,8.59
2023-03-30T03:10:14.448Z,8.64
2023-03-30T03:15:17.980Z,8.66
2023-03-30T03:20:20.052Z,8.70
2023-03-30T03:25:21.996Z,8.72
2023-03-30T03:30:25.500Z,8.70
2023-03-30T03:35:27.407Z,8.68
2023-03-30T03:40:29.475Z,8.62
2023-03-30T03:45:33.086Z,8.55
2023-03-30T03:50:35.173Z,8.39
2023-03-30T03:55:36.906Z,8.38
2023-03-30T04:00:40.606Z,8.40
2023-03-30T04:05:42.950Z,8.44
2023-03-30T04:10:45.076Z,8.49
2023-03-30T04:15:48.194Z,8.52
2023-03-30T04:20:49.866Z,8.57
2023-03-30T04:25:52.031Z,8.64
2023-03-30T04:30:59.244Z,8.65
2023-03-30T04:36:02.184Z,8.68
2023-03-30T04:41:04.454Z,8.59
2023-03-30T04:46:08.199Z,8.48
2023-03-30T04:51:10.651Z,8.46
2023-03-30T04:56:12.554Z,8.50
2023-03-30T05:01:18.427Z,8.52
2023-03-30T05:06:20.213Z,8.53
2023-03-30T05:11:25.376Z,8.52
2023-03-30T05:16:28.833Z,8.54
2023-03-30T05:21:30.909Z,8.59
2023-03-30T05:26:33.134Z,8.63
2023-03-30T05:31:36.862Z,8.67
2023-03-30T05:36:39.288Z,8.63
2023-03-30T05:41:41.363Z,8.58
2023-03-30T05:46:45.029Z,8.62
2023-03-30T05:51:47.893Z,8.66
2023-03-30T05:56:52.327Z,8.69
2023-03-30T06:01:55.834Z,8.72
2023-03-30T06:06:57.510Z,8.87
2023-03-30T06:11:59.306Z,8.87
2023-03-30T06:17:02.624Z,9.02
2023-03-30T06:22:04.945Z,9.15
2023-03-30T06:27:06.851Z,9.28
2023-03-30T06:32:10.557Z,9.27
2023-03-30T06:37:13.245Z,9.40
2023-03-30T06:42:15.618Z,9.52
2023-03-30T06:47:19.165Z,9.40
2023-03-30T06:52:20.799Z,9.43
2023-03-30T06:57:22.826Z,9.51
2023-03-30T07:02:26.838Z,9.58
2023-03-30T07:07:28.955Z,9.93
2023-03-30T07:12:30.692Z,10.52
2023-03-30T07:17:34.566Z,10.76
2023-03-30T07:22:37.217Z,10.84
2023-03-30T07:27:39.089Z,11.07
2023-03-30T07:32:42.260Z,11.41
2023-03-30T07:37:44.370Z,11.67
2023-03-30T07:42:46.415Z,12.04
2023-03-30T07:47:49.573Z,12.37
2023-03-30T07:52:51.415Z,12.62
2023-03-30T07:57:53.052Z,13.11
2023-03-30T08:02:56.830Z,13.47
2023-03-30T08:07:59.550Z,13.58
2023-03-30T08:13:03.094Z,14.00
2023-03-30T08:18:09.105Z,14.25
2023-03-30T08:23:12.538Z,14.28
2023-03-30T08:28:15.189Z,14.49
2023-03-30T08:33:20.148Z,14.78
2023-03-30T08:38:22.311Z,15.05
2023-03-30T08:43:41.965Z,15.09
2023-03-30T08:48:47.959Z,15.17
2023-03-30T08:53:58.256Z,15.12
2023-03-30T08:59:17.456Z,14.68
2023-03-30T09:04:29.830Z,14.54
2023-03-30T09:09:37.557Z,14.83
2023-03-30T09:14:43.378Z,15.07
2023-03-30T09:19:55.142Z,15.16
2023-03-30T09:24:58.056Z,15.28
2023-03-30T09:30:09.930Z,15.18
2023-03-30T09:35:15.311Z,15.33
2023-03-30T09:40:26.432Z,15.28
2023-03-30T09:45:33.285Z,15.38
2023-03-30T09:50:46.256Z,15.30
2023-03-30T09:55:59.363Z,15.38
2023-03-30T10:01:04.552Z,15.38
2023-03-30T10:06:13.431Z,15.05
2023-03-30T10:11:20.473Z,15.04
2023-03-30T10:16:26.435Z,14.96
2023-03-30T10:21:36.416Z,14.97
2023-03-30T10:26:38.639Z,15.27
2023-03-30T10:31:45.416Z,15.41
2023-03-30T10:36:53.990Z,15.59
2023-03-30T10:42:00.184Z,15.78
2023-03-30T10:47:16.836Z,16.24
2023-03-30T10:52:27.169Z,16.28
2023-03-30T10:57:39.187Z,15.91
2023-03-30T11:02:54.836Z,16.00
2023-03-30T11:08:02.015Z,16.26
2023-03-30T11:13:07.388Z,16.36
2023-03-30T11:18:16.265Z,16.21
2023-03-30T11:23:29.868Z,16.27
2023-03-30T11:28:50.026Z,16.62
2023-03-30T11:33:58.665Z,16.85
2023-03-30T11:39:05.321Z,16.89
2023-03-30T11:44:09.726Z,17.39
2023-03-30T11:49:22.596Z,17.85
2023-03-30T11:55:15.057Z,18.92
2023-03-30T12:00:28.147Z,19.13
2023-03-30T12:05:35.487Z,18.98
2023-03-30T12:10:41.298Z,20.55
2023-03-30T12:15:50.967Z,20.71
2023-03-30T12:20:57.168Z,19.82
2023-03-30T12:26:08.593Z,19.48
2023-03-30T12:31:12.110Z,18.87
2023-03-30T12:36:30.893Z,19.35
2023-03-30T12:41:40.954Z,19.38
2023-03-30T12:47:00.896Z,20.30
2023-03-30T12:52:09.989Z,20.09
2023-03-30T12:57:23.363Z,20.07
2023-03-30T13:02:56.631Z,19.79
2023-03-30T13:08:03.420Z,19.04
2023-03-30T13:13:05.857Z,18.79
2023-03-30T13:18:39.956Z,18.46
2023-03-30T13:23:44.632Z,18.67
2023-03-30T13:28:59.516Z,18.40
2023-03-30T13:34:13.968Z,18.07
2023-03-30T13:39:23.234Z,17.25
2023-03-30T13:44:48.074Z,11.05
2023-03-30T13:49:58.532Z,10.81
2023-03-30T13:55:04.900Z,10.80
2023-03-30T14:00:20.314Z,10.80
2023-03-30T14:05:24.081Z,10.89
2023-03-30T14:10:27.407Z,10.83
2023-03-30T14:15:35.523Z,10.87
2023-03-30T14:20:47.157Z,10.85
2023-03-30T14:25:54.252Z,10.80
2023-03-30T14:30:58.724Z,10.72
2023-03-30T14:36:02.820Z,10.77
2023-03-30T14:41:08.839Z,10.82
2023-03-30T14:46:12.197Z,10.76
2023-03-30T14:51:23.803Z,10.81
2023-03-30T14:56:27.368Z,10.76
2023-03-30T15:01:31.543Z,10.72
2023-03-30T15:06:34.048Z,10.72
2023-03-30T15:11:40.843Z,10.73
2023-03-30T15:16:43.063Z,10.73
2023-03-30T15:21:44.899Z,10.78
2023-03-30T15:26:49.992Z,10.81
2023-03-30T15:31:59.574Z,10.92
2023-03-30T15:37:03.744Z,11.03
2023-03-30T15:42:07.473Z,10.99
2023-03-30T15:47:13.896Z,11.17
2023-03-30T15:52:21.899Z,11.19
2023-03-30T15:57:29.447Z,11.22
2023-03-30T16:02:38.591Z,11.41
2023-03-30T16:07:40.713Z,11.77
2023-03-30T16:12:45.673Z,11.94
2023-03-30T16:17:47.981Z,11.95
2023-03-30T16:22:50.648Z,12.10
2023-03-30T16:27:54.223Z,12.09
2023-03-30T16:32:56.734Z,12.08
2023-03-30T16:37:59.041Z,12.15
2023-03-30T16:43:03.129Z,12.22
2023-03-30T16:48:05.288Z,12.20
2023-03-30T16:53:09.164Z,12.27
2023-03-30T16:58:14.918Z,12.20
2023-03-30T17:03:18.158Z,12.02
2023-03-30T17:08:22.518Z,11.89
2023-03-30T17:13:25.648Z,11.68
2023-03-30T17:18:27.964Z,11.51
2023-03-30T17:23:31.873Z,11.35
2023-03-30T17:28:36.148Z,11.24
2023-03-30T17:33:38.668Z,11.15
2023-03-30T17:38:44.016Z,11.02
2023-03-30T17:43:48.147Z,10.98
2023-03-30T17:48:50.922Z,10.91
2023-03-30T17:53:53.169Z,10.82
2023-03-30T17:58:56.607Z,10.78
2023-03-30T18:04:00.051Z,10.72
2023-03-30T18:09:02.222Z,10.70
2023-03-30T18:14:05.476Z,10.62
2023-03-30T18:19:09.471Z,10.57
2023-03-30T18:24:11.603Z,10.58
2023-03-30T18:29:19.135Z,10.50
2023-03-30T18:34:21.339Z,10.40
2023-03-30T18:39:23.383Z,10.30
2023-03-30T18:44:26.873Z,10.22
2023-03-30T18:49:28.727Z,10.23
2023-03-30T18:54:36.422Z,10.32
2023-03-30T18:59:41.112Z,10.28
2023-03-30T19:04:43.368Z,10.36
2023-03-30T19:09:45.894Z,10.36
2023-03-30T19:14:49.035Z,10.40
2023-03-30T19:19:50.775Z,10.88
2023-03-30T19:24:52.855Z,10.94
2023-03-30T19:29:56.496Z,10.88
2023-03-30T19:34:58.735Z,10.70
2023-03-30T19:40:01.054Z,10.43
2023-03-30T19:45:05.737Z,10.18
2023-03-30T19:50:09.615Z,9.94
2023-03-30T19:55:12.103Z,9.96
2023-03-30T20:00:17.533Z,9.87
2023-03-30T20:05:20.221Z,9.68
2023-03-30T20:10:24.264Z,9.55
2023-03-30T20:15:27.490Z,9.41
2023-03-30T20:20:29.600Z,9.37
2023-03-30T20:25:31.526Z,9.39
2023-03-30T20:30:37.608Z,9.41
2023-03-30T20:35:39.580Z,9.41
2023-03-30T20:40:41.582Z,9.31
2023-03-30T20:45:45.065Z,9.19
2023-03-30T20:50:47.952Z,9.19
2023-03-30T20:55:50.379Z,9.11
2023-03-30T21:00:54.856Z,9.16
2023-03-30T21:06:01.152Z,9.16
2023-03-30T21:11:04.085Z,9.22
2023-03-30T21:16:08.376Z,9.28
2023-03-30T21:21:10.739Z,9.33
2023-03-30T21:26:13.229Z,9.32
2023-03-30T21:31:16.714Z,9.38
2023-03-30T21:36:19.062Z,9.40
2023-03-30T21:41:21.157Z,9.42
2023-03-30T21:46:26.353Z,9.46
2023-03-30T21:51:30.441Z,9.40
2023-03-30T21:56:32.685Z,9.36
2023-03-30T22:01:36.373Z,9.35
2023-03-30T22:06:38.482Z,9.43
2023-03-30T22:11:40.548Z,9.42
2023-03-30T22:16:43.834Z,9.40
2023-03-30T22:21:45.985Z,9.45
2023-03-30T22:26:48.098Z,9.41
2023-03-30T22:31:51.596Z,9.43
2023-03-30T22:36:54.241Z,9.50
2023-03-30T22:41:56.509Z,9.55
2023-03-30T22:46:59.825Z,9.59
2023-03-30T22:52:02.114Z,9.61
2023-03-30T22:57:04.365Z,9.65
2023-03-30T23:02:07.836Z,9.64
2023-03-30T23:07:10.688Z,9.57
2023-03-30T23:12:12.893Z,9.67
2023-03-30T23:17:16.138Z,9.71
2023-03-30T23:22:18.311Z,9.82
2023-03-30T23:27:21.232Z,9.79
2023-03-30T23:32:24.519Z,9.73
2023-03-30T23:37:26.511Z,9.62
2023-03-30T23:42:28.967Z,9.63
2023-03-30T23:47:32.503Z,9.54
2023-03-30T23:52:34.639Z,9.66
2023-03-30T23:57:36.892Z,9.67
